sensor_id;sensor_type;location;lat;lon;timestamp;temperature;humidity
2363;DHT22;64265;51.664;7.626;2023-12-14T00:02:09;22.30;75.00
2363;DHT22;64265;51.664;7.626;2023-12-14T00:04:36;22.30;75.10
2363;DHT22;64265;51.664;7.626;2023-12-14T00:07:04;22.30;76.00
2363;DHT22;64265;51.664;7.626;2023-12-14T00:09:30;22.20;74.90
2363;DHT22;64265;51.664;7.626;2023-12-14T00:11:56;22.20;75.00
2363;DHT22;64265;51.664;7.626;2023-12-14T00:14:23;22.20;75.70
2363;DHT22;64265;51.664;7.626;2023-12-14T00:16:50;22.30;75.00
2363;DHT22;64265;51.664;7.626;2023-12-14T00:19:16;22.40;75.10
2363;DHT22;64265;51.664;7.626;2023-12-14T00:21:43;22.20;74.90
2363;DHT22;64265;51.664;7.626;2023-12-14T00:24:11;22.20;75.00
2363;DHT22;64265;51.664;7.626;2023-12-14T00:26:38;22.20;75.00
2363;DHT22;64265;51.664;7.626;2023-12-14T00:29:05;22.10;74.80
2363;DHT22;64265;51.664;7.626;2023-12-14T00:31:32;22.10;74.80
2363;DHT22;64265;51.664;7.626;2023-12-14T00:33:58;22.10;75.00
2363;DHT22;64265;51.664;7.626;2023-12-14T00:36:25;22.10;75.00
2363;DHT22;64265;51.664;7.626;2023-12-14T00:38:52;22.10;75.10
2363;DHT22;64265;51.664;7.626;2023-12-14T00:41:21;22.00;75.00
2363;DHT22;64265;51.664;7.626;2023-12-14T00:43:48;22.10;75.20
2363;DHT22;64265;51.664;7.626;2023-12-14T00:46:15;22.10;75.10
2363;DHT22;64265;51.664;7.626;2023-12-14T00:48:41;22.20;75.20
2363;DHT22;64265;51.664;7.626;2023-12-14T00:51:08;22.00;75.10
2363;DHT22;64265;51.664;7.626;2023-12-14T00:53:35;22.00;75.00
2363;DHT22;64265;51.664;7.626;2023-12-14T00:56:02;22.00;75.10
2363;DHT22;64265;51.664;7.626;2023-12-14T00:58:30;22.00;75.00
2363;DHT22;64265;51.664;7.626;2023-12-14T01:00:57;22.00;75.10
2363;DHT22;64265;51.664;7.626;2023-12-14T01:03:24;21.90;74.90
2363;DHT22;64265;51.664;7.626;2023-12-14T01:05:51;21.90;74.90
2363;DHT22;64265;51.664;7.626;2023-12-14T01:08:17;21.90;75.00
2363;DHT22;64265;51.664;7.626;2023-12-14T01:10:44;22.00;75.20
2363;DHT22;64265;51.664;7.626;2023-12-14T01:13:12;21.90;75.20
2363;DHT22;64265;51.664;7.626;2023-12-14T01:15:40;21.80;75.10
2363;DHT22;64265;51.664;7.626;2023-12-14T01:18:07;21.90;75.20
2363;DHT22;64265;51.664;7.626;2023-12-14T01:20:34;21.80;75.10
2363;DHT22;64265;51.664;7.626;2023-12-14T01:23:00;21.80;75.10
2363;DHT22;64265;51.664;7.626;2023-12-14T01:25:27;21.80;75.10
2363;DHT22;64265;51.664;7.626;2023-12-14T01:27:54;21.80;75.20
2363;DHT22;64265;51.664;7.626;2023-12-14T01:30:21;21.80;75.00
2363;DHT22;64265;51.664;7.626;2023-12-14T01:32:49;21.80;75.10
2363;DHT22;64265;51.664;7.626;2023-12-14T01:35:16;21.70;74.90
2363;DHT22;64265;51.664;7.626;2023-12-14T01:37:42;21.80;75.00
2363;DHT22;64265;51.664;7.626;2023-12-14T01:40:10;21.80;75.00
2363;DHT22;64265;51.664;7.626;2023-12-14T01:42:37;21.70;75.00
2363;DHT22;64265;51.664;7.626;2023-12-14T01:45:05;21.70;75.70
2363;DHT22;64265;51.664;7.626;2023-12-14T01:47:32;21.70;75.30
2363;DHT22;64265;51.664;7.626;2023-12-14T01:50:00;21.70;75.60
2363;DHT22;64265;51.664;7.626;2023-12-14T01:52:27;21.80;75.50
2363;DHT22;64265;51.664;7.626;2023-12-14T01:54:53;21.70;75.30
2363;DHT22;64265;51.664;7.626;2023-12-14T01:57:24;21.60;75.30
2363;DHT22;64265;51.664;7.626;2023-12-14T01:59:51;21.60;75.30
2363;DHT22;64265;51.664;7.626;2023-12-14T02:02:18;21.60;75.30
2363;DHT22;64265;51.664;7.626;2023-12-14T02:04:45;21.60;75.10
2363;DHT22;64265;51.664;7.626;2023-12-14T02:07:13;21.60;75.10
2363;DHT22;64265;51.664;7.626;2023-12-14T02:09:40;21.50;75.00
2363;DHT22;64265;51.664;7.626;2023-12-14T02:12:07;21.60;75.30
2363;DHT22;64265;51.664;7.626;2023-12-14T02:14:34;21.60;75.40
2363;DHT22;64265;51.664;7.626;2023-12-14T02:17:00;21.50;75.40
2363;DHT22;64265;51.664;7.626;2023-12-14T02:19:28;21.50;75.40
2363;DHT22;64265;51.664;7.626;2023-12-14T02:21:54;21.50;75.50
2363;DHT22;64265;51.664;7.626;2023-12-14T02:24:22;21.50;75.50
2363;DHT22;64265;51.664;7.626;2023-12-14T02:26:49;21.50;75.60
2363;DHT22;64265;51.664;7.626;2023-12-14T02:29:16;21.50;75.40
2363;DHT22;64265;51.664;7.626;2023-12-14T02:31:43;21.50;75.40
2363;DHT22;64265;51.664;7.626;2023-12-14T02:34:09;21.50;75.50
2363;DHT22;64265;51.664;7.626;2023-12-14T02:36:36;21.60;75.50
2363;DHT22;64265;51.664;7.626;2023-12-14T02:39:03;21.50;75.20
2363;DHT22;64265;51.664;7.626;2023-12-14T02:41:31;21.50;75.10
2363;DHT22;64265;51.664;7.626;2023-12-14T02:43:58;21.50;75.30
2363;DHT22;64265;51.664;7.626;2023-12-14T02:46:25;21.40;75.30
2363;DHT22;64265;51.664;7.626;2023-12-14T02:48:52;21.40;75.40
2363;DHT22;64265;51.664;7.626;2023-12-14T02:51:18;21.40;75.60
2363;DHT22;64265;51.664;7.626;2023-12-14T02:53:45;21.40;75.70
2363;DHT22;64265;51.664;7.626;2023-12-14T02:56:12;21.40;75.60
2363;DHT22;64265;51.664;7.626;2023-12-14T02:58:40;21.40;75.60
2363;DHT22;64265;51.664;7.626;2023-12-14T03:01:07;21.40;75.60
2363;DHT22;64265;51.664;7.626;2023-12-14T03:03:34;21.40;75.50
2363;DHT22;64265;51.664;7.626;2023-12-14T03:06:00;21.40;75.30
2363;DHT22;64265;51.664;7.626;2023-12-14T03:08:27;21.30;75.30
2363;DHT22;64265;51.664;7.626;2023-12-14T03:10:54;21.30;75.20
2363;DHT22;64265;51.664;7.626;2023-12-14T03:13:20;21.40;75.20
2363;DHT22;64265;51.664;7.626;2023-12-14T03:15:49;21.40;76.10
2363;DHT22;64265;51.664;7.626;2023-12-14T03:18:15;21.30;75.30
2363;DHT22;64265;51.664;7.626;2023-12-14T03:20:42;21.30;75.40
2363;DHT22;64265;51.664;7.626;2023-12-14T03:23:09;21.30;75.40
2363;DHT22;64265;51.664;7.626;2023-12-14T03:25:36;21.20;75.40
2363;DHT22;64265;51.664;7.626;2023-12-14T03:28:03;21.30;75.70
2363;DHT22;64265;51.664;7.626;2023-12-14T03:30:29;21.30;75.70
2363;DHT22;64265;51.664;7.626;2023-12-14T03:32:58;21.30;75.60
2363;DHT22;64265;51.664;7.626;2023-12-14T03:35:24;21.20;75.40
2363;DHT22;64265;51.664;7.626;2023-12-14T03:37:51;21.30;75.40
2363;DHT22;64265;51.664;7.626;2023-12-14T03:40:18;21.30;75.60
2363;DHT22;64265;51.664;7.626;2023-12-14T03:42:45;21.30;75.40
2363;DHT22;64265;51.664;7.626;2023-12-14T03:45:12;21.30;75.30
2363;DHT22;64265;51.664;7.626;2023-12-14T03:47:39;21.30;76.20
2363;DHT22;64265;51.664;7.626;2023-12-14T03:50:10;21.20;75.30
2363;DHT22;64265;51.664;7.626;2023-12-14T03:52:37;21.20;75.40
2363;DHT22;64265;51.664;7.626;2023-12-14T03:55:05;21.20;75.60
2363;DHT22;64265;51.664;7.626;2023-12-14T03:57:31;21.20;75.60
2363;DHT22;64265;51.664;7.626;2023-12-14T03:59:58;21.20;75.70
2363;DHT22;64265;51.664;7.626;2023-12-14T04:02:25;21.20;75.70
2363;DHT22;64265;51.664;7.626;2023-12-14T04:04:52;21.20;75.60
2363;DHT22;64265;51.664;7.626;2023-12-14T04:07:20;21.20;75.60
2363;DHT22;64265;51.664;7.626;2023-12-14T04:09:47;21.10;75.40
2363;DHT22;64265;51.664;7.626;2023-12-14T04:12:14;21.10;75.40
2363;DHT22;64265;51.664;7.626;2023-12-14T04:14:40;21.20;75.60
2363;DHT22;64265;51.664;7.626;2023-12-14T04:17:07;21.10;75.30
2363;DHT22;64265;51.664;7.626;2023-12-14T04:19:34;21.20;75.50
2363;DHT22;64265;51.664;7.626;2023-12-14T04:22:01;21.10;75.50
2363;DHT22;64265;51.664;7.626;2023-12-14T04:24:29;21.10;75.40
2363;DHT22;64265;51.664;7.626;2023-12-14T04:26:56;21.10;75.60
2363;DHT22;64265;51.664;7.626;2023-12-14T04:29:23;21.10;75.50
2363;DHT22;64265;51.664;7.626;2023-12-14T04:31:49;21.10;75.80
2363;DHT22;64265;51.664;7.626;2023-12-14T04:34:16;21.10;75.90
2363;DHT22;64265;51.664;7.626;2023-12-14T04:36:45;21.10;75.60
2363;DHT22;64265;51.664;7.626;2023-12-14T04:39:12;21.10;75.40
2363;DHT22;64265;51.664;7.626;2023-12-14T04:41:40;21.10;76.40
2363;DHT22;64265;51.664;7.626;2023-12-14T04:44:06;21.00;75.50
2363;DHT22;64265;51.664;7.626;2023-12-14T04:46:35;21.10;75.70
2363;DHT22;64265;51.664;7.626;2023-12-14T04:49:02;21.10;76.20
2363;DHT22;64265;51.664;7.626;2023-12-14T04:51:29;21.10;75.60
2363;DHT22;64265;51.664;7.626;2023-12-14T04:53:57;21.00;75.50
2363;DHT22;64265;51.664;7.626;2023-12-14T04:56:24;21.10;75.80
2363;DHT22;64265;51.664;7.626;2023-12-14T04:58:52;21.00;75.70
2363;DHT22;64265;51.664;7.626;2023-12-14T05:01:19;21.10;75.90
2363;DHT22;64265;51.664;7.626;2023-12-14T05:03:45;21.00;75.70
2363;DHT22;64265;51.664;7.626;2023-12-14T05:06:12;21.00;75.70
2363;DHT22;64265;51.664;7.626;2023-12-14T05:08:39;21.00;75.70
2363;DHT22;64265;51.664;7.626;2023-12-14T05:11:06;21.10;75.70
2363;DHT22;64265;51.664;7.626;2023-12-14T05:13:32;21.00;75.40
2363;DHT22;64265;51.664;7.626;2023-12-14T05:16:01;21.00;75.50
2363;DHT22;64265;51.664;7.626;2023-12-14T05:18:27;21.00;75.40
2363;DHT22;64265;51.664;7.626;2023-12-14T05:20:54;21.00;75.70
2363;DHT22;64265;51.664;7.626;2023-12-14T05:23:21;21.00;75.60
2363;DHT22;64265;51.664;7.626;2023-12-14T05:25:49;21.00;75.70
2363;DHT22;64265;51.664;7.626;2023-12-14T05:28:16;21.00;75.60
2363;DHT22;64265;51.664;7.626;2023-12-14T05:30:43;20.90;75.70
2363;DHT22;64265;51.664;7.626;2023-12-14T05:33:11;21.00;75.80
2363;DHT22;64265;51.664;7.626;2023-12-14T05:35:37;21.00;75.90
2363;DHT22;64265;51.664;7.626;2023-12-14T05:38:04;20.90;75.80
2363;DHT22;64265;51.664;7.626;2023-12-14T05:40:31;21.00;75.70
2363;DHT22;64265;51.664;7.626;2023-12-14T05:42:58;21.00;75.70
2363;DHT22;64265;51.664;7.626;2023-12-14T05:45:24;21.00;75.60
2363;DHT22;64265;51.664;7.626;2023-12-14T05:47:51;21.00;75.70
2363;DHT22;64265;51.664;7.626;2023-12-14T05:50:19;21.00;75.90
2363;DHT22;64265;51.664;7.626;2023-12-14T05:52:47;21.00;75.90
2363;DHT22;64265;51.664;7.626;2023-12-14T05:55:14;20.90;75.90
2363;DHT22;64265;51.664;7.626;2023-12-14T05:57:44;21.00;76.10
2363;DHT22;64265;51.664;7.626;2023-12-14T06:00:11;20.90;75.90
2363;DHT22;64265;51.664;7.626;2023-12-14T06:02:38;20.90;76.00
2363;DHT22;64265;51.664;7.626;2023-12-14T06:05:06;21.00;76.40
2363;DHT22;64265;51.664;7.626;2023-12-14T06:07:34;20.90;76.40
2363;DHT22;64265;51.664;7.626;2023-12-14T06:10:01;21.00;76.70
2363;DHT22;64265;51.664;7.626;2023-12-14T06:12:29;20.90;76.70
2363;DHT22;64265;51.664;7.626;2023-12-14T06:14:55;21.00;77.10
2363;DHT22;64265;51.664;7.626;2023-12-14T06:17:22;21.00;77.00
2363;DHT22;64265;51.664;7.626;2023-12-14T06:19:49;21.00;77.30
2363;DHT22;64265;51.664;7.626;2023-12-14T06:22:16;21.00;77.50
2363;DHT22;64265;51.664;7.626;2023-12-14T06:24:44;21.00;77.80
2363;DHT22;64265;51.664;7.626;2023-12-14T06:27:11;21.00;77.70
2363;DHT22;64265;51.664;7.626;2023-12-14T06:29:37;21.00;77.70
2363;DHT22;64265;51.664;7.626;2023-12-14T06:32:04;21.00;77.50
2363;DHT22;64265;51.664;7.626;2023-12-14T06:34:31;21.00;77.50
2363;DHT22;64265;51.664;7.626;2023-12-14T06:36:58;21.00;77.50
2363;DHT22;64265;51.664;7.626;2023-12-14T06:39:25;20.90;77.60
2363;DHT22;64265;51.664;7.626;2023-12-14T06:41:53;21.00;77.00
2363;DHT22;64265;51.664;7.626;2023-12-14T06:44:20;21.00;77.70
2363;DHT22;64265;51.664;7.626;2023-12-14T06:46:47;21.00;77.80
2363;DHT22;64265;51.664;7.626;2023-12-14T06:49:14;21.00;77.60
2363;DHT22;64265;51.664;7.626;2023-12-14T06:51:40;20.90;77.80
2363;DHT22;64265;51.664;7.626;2023-12-14T06:54:07;20.90;77.40
2363;DHT22;64265;51.664;7.626;2023-12-14T06:56:36;20.90;77.40
2363;DHT22;64265;51.664;7.626;2023-12-14T06:59:04;20.90;77.50
2363;DHT22;64265;51.664;7.626;2023-12-14T07:01:31;21.10;77.80
2363;DHT22;64265;51.664;7.626;2023-12-14T07:03:57;20.90;77.40
2363;DHT22;64265;51.664;7.626;2023-12-14T07:06:24;20.90;77.30
2363;DHT22;64265;51.664;7.626;2023-12-14T07:08:51;20.90;77.20
2363;DHT22;64265;51.664;7.626;2023-12-14T07:11:18;20.90;77.20
2363;DHT22;64265;51.664;7.626;2023-12-14T07:13:44;20.90;77.10
2363;DHT22;64265;51.664;7.626;2023-12-14T07:16:13;20.90;77.10
2363;DHT22;64265;51.664;7.626;2023-12-14T07:18:41;20.90;77.10
2363;DHT22;64265;51.664;7.626;2023-12-14T07:21:08;20.90;76.90
2363;DHT22;64265;51.664;7.626;2023-12-14T07:23:35;20.90;76.80
2363;DHT22;64265;51.664;7.626;2023-12-14T07:26:02;21.00;77.10
2363;DHT22;64265;51.664;7.626;2023-12-14T07:28:29;20.90;76.90
2363;DHT22;64265;51.664;7.626;2023-12-14T07:30:56;20.90;76.80
2363;DHT22;64265;51.664;7.626;2023-12-14T07:33:24;20.70;76.50
2363;DHT22;64265;51.664;7.626;2023-12-14T07:35:51;20.90;76.60
2363;DHT22;64265;51.664;7.626;2023-12-14T07:38:18;20.90;76.80
2363;DHT22;64265;51.664;7.626;2023-12-14T07:40:45;20.90;75.60
2363;DHT22;64265;51.664;7.626;2023-12-14T07:43:12;20.90;75.60
2363;DHT22;64265;51.664;7.626;2023-12-14T07:45:39;20.90;75.40
2363;DHT22;64265;51.664;7.626;2023-12-14T07:48:06;20.90;75.40
2363;DHT22;64265;51.664;7.626;2023-12-14T07:50:34;20.90;75.00
2363;DHT22;64265;51.664;7.626;2023-12-14T07:53:00;20.90;75.00
2363;DHT22;64265;51.664;7.626;2023-12-14T07:55:28;21.00;74.70
2363;DHT22;64265;51.664;7.626;2023-12-14T07:57:55;20.90;74.60
2363;DHT22;64265;51.664;7.626;2023-12-14T08:00:22;20.90;75.10
2363;DHT22;64265;51.664;7.626;2023-12-14T08:02:48;20.90;75.30
2363;DHT22;64265;51.664;7.626;2023-12-14T08:05:15;21.00;75.50
2363;DHT22;64265;51.664;7.626;2023-12-14T08:07:43;21.00;75.60
2363;DHT22;64265;51.664;7.626;2023-12-14T08:10:10;20.90;75.60
2363;DHT22;64265;51.664;7.626;2023-12-14T08:12:37;21.00;75.30
2363;DHT22;64265;51.664;7.626;2023-12-14T08:15:04;21.00;75.00
2363;DHT22;64265;51.664;7.626;2023-12-14T08:17:33;21.00;75.00
2363;DHT22;64265;51.664;7.626;2023-12-14T08:20:00;21.00;74.70
2363;DHT22;64265;51.664;7.626;2023-12-14T08:22:26;21.00;74.90
2363;DHT22;64265;51.664;7.626;2023-12-14T08:24:55;21.00;74.80
2363;DHT22;64265;51.664;7.626;2023-12-14T08:27:21;21.00;74.70
2363;DHT22;64265;51.664;7.626;2023-12-14T08:29:48;21.00;74.60
2363;DHT22;64265;51.664;7.626;2023-12-14T08:32:15;21.00;74.30
2363;DHT22;64265;51.664;7.626;2023-12-14T08:34:42;21.00;74.30
2363;DHT22;64265;51.664;7.626;2023-12-14T08:37:08;21.00;74.30
2363;DHT22;64265;51.664;7.626;2023-12-14T08:39:35;21.10;74.50
2363;DHT22;64265;51.664;7.626;2023-12-14T08:42:04;21.00;74.20
2363;DHT22;64265;51.664;7.626;2023-12-14T08:44:30;21.10;74.30
2363;DHT22;64265;51.664;7.626;2023-12-14T08:46:57;21.10;74.30
2363;DHT22;64265;51.664;7.626;2023-12-14T08:49:24;21.20;74.40
2363;DHT22;64265;51.664;7.626;2023-12-14T08:51:51;21.20;74.20
2363;DHT22;64265;51.664;7.626;2023-12-14T08:54:18;21.10;74.10
2363;DHT22;64265;51.664;7.626;2023-12-14T08:56:44;21.10;74.00
2363;DHT22;64265;51.664;7.626;2023-12-14T08:59:12;21.10;74.10
2363;DHT22;64265;51.664;7.626;2023-12-14T09:01:39;21.10;74.10
2363;DHT22;64265;51.664;7.626;2023-12-14T09:04:06;21.10;74.00
2363;DHT22;64265;51.664;7.626;2023-12-14T09:06:33;21.10;74.00
2363;DHT22;64265;51.664;7.626;2023-12-14T09:09:00;21.10;74.10
2363;DHT22;64265;51.664;7.626;2023-12-14T09:11:28;21.10;74.00
2363;DHT22;64265;51.664;7.626;2023-12-14T09:13:54;21.10;73.60
2363;DHT22;64265;51.664;7.626;2023-12-14T09:16:23;21.10;68.20
2363;DHT22;64265;51.664;7.626;2023-12-14T09:18:49;21.00;67.70
2363;DHT22;64265;51.664;7.626;2023-12-14T09:21:16;20.90;71.40
2363;DHT22;64265;51.664;7.626;2023-12-14T09:23:43;20.80;79.80
2363;DHT22;64265;51.664;7.626;2023-12-14T09:26:09;20.60;64.30
2363;DHT22;64265;51.664;7.626;2023-12-14T09:28:37;20.50;70.60
2363;DHT22;64265;51.664;7.626;2023-12-14T09:31:04;20.70;72.50
2363;DHT22;64265;51.664;7.626;2023-12-14T09:33:32;20.90;72.70
2363;DHT22;64265;51.664;7.626;2023-12-14T09:35:59;21.00;73.10
2363;DHT22;64265;51.664;7.626;2023-12-14T09:38:25;21.20;73.30
2363;DHT22;64265;51.664;7.626;2023-12-14T09:40:52;21.40;73.80
2363;DHT22;64265;51.664;7.626;2023-12-14T09:43:19;21.40;74.40
2363;DHT22;64265;51.664;7.626;2023-12-14T09:45:47;21.50;74.60
2363;DHT22;64265;51.664;7.626;2023-12-14T09:48:16;21.70;75.00
2363;DHT22;64265;51.664;7.626;2023-12-14T09:50:44;21.70;76.70
2363;DHT22;64265;51.664;7.626;2023-12-14T09:53:12;21.80;76.70
2363;DHT22;64265;51.664;7.626;2023-12-14T09:55:39;21.90;77.20
2363;DHT22;64265;51.664;7.626;2023-12-14T09:58:06;22.00;86.30
2363;DHT22;64265;51.664;7.626;2023-12-14T10:00:36;22.10;82.90
2363;DHT22;64265;51.664;7.626;2023-12-14T10:03:23;22.20;82.50
2363;DHT22;64265;51.664;7.626;2023-12-14T10:05:53;22.30;80.10
2363;DHT22;64265;51.664;7.626;2023-12-14T10:08:20;22.50;78.90
2363;DHT22;64265;51.664;7.626;2023-12-14T10:10:49;22.60;78.20
2363;DHT22;64265;51.664;7.626;2023-12-14T10:13:18;22.60;80.80
2363;DHT22;64265;51.664;7.626;2023-12-14T10:15:46;22.60;79.10
2363;DHT22;64265;51.664;7.626;2023-12-14T10:18:21;22.70;78.50
2363;DHT22;64265;51.664;7.626;2023-12-14T10:20:49;22.80;78.30
2363;DHT22;64265;51.664;7.626;2023-12-14T10:23:17;22.60;78.00
2363;DHT22;64265;51.664;7.626;2023-12-14T10:25:44;22.90;78.10
2363;DHT22;64265;51.664;7.626;2023-12-14T10:28:11;23.10;78.10
2363;DHT22;64265;51.664;7.626;2023-12-14T10:30:38;23.00;77.50
2363;DHT22;64265;51.664;7.626;2023-12-14T10:33:05;23.00;77.80
2363;DHT22;64265;51.664;7.626;2023-12-14T10:35:32;23.00;77.90
2363;DHT22;64265;51.664;7.626;2023-12-14T10:38:04;23.20;78.30
2363;DHT22;64265;51.664;7.626;2023-12-14T10:40:33;23.10;78.20
2363;DHT22;64265;51.664;7.626;2023-12-14T10:43:03;23.10;78.70
2363;DHT22;64265;51.664;7.626;2023-12-14T10:45:32;23.20;78.90
2363;DHT22;64265;51.664;7.626;2023-12-14T10:48:00;23.20;76.50
2363;DHT22;64265;51.664;7.626;2023-12-14T10:50:28;23.40;65.20
2363;DHT22;64265;51.664;7.626;2023-12-14T10:52:56;23.00;65.10
2363;DHT22;64265;51.664;7.626;2023-12-14T10:55:27;22.70;61.20
2363;DHT22;64265;51.664;7.626;2023-12-14T10:57:57;22.60;64.00
2363;DHT22;64265;51.664;7.626;2023-12-14T11:00:23;22.80;66.20
2363;DHT22;64265;51.664;7.626;2023-12-14T11:02:51;22.80;66.30
2363;DHT22;64265;51.664;7.626;2023-12-14T11:05:18;23.10;65.90
2363;DHT22;64265;51.664;7.626;2023-12-14T11:07:53;23.10;66.00
2363;DHT22;64265;51.664;7.626;2023-12-14T11:10:22;23.20;66.90
2363;DHT22;64265;51.664;7.626;2023-12-14T11:12:59;23.20;67.00
2363;DHT22;64265;51.664;7.626;2023-12-14T11:15:28;23.20;67.10
2363;DHT22;64265;51.664;7.626;2023-12-14T11:18:24;23.20;67.90
2363;DHT22;64265;51.664;7.626;2023-12-14T11:20:54;23.30;68.50
2363;DHT22;64265;51.664;7.626;2023-12-14T11:23:35;23.30;69.10
2363;DHT22;64265;51.664;7.626;2023-12-14T11:26:05;23.40;69.20
2363;DHT22;64265;51.664;7.626;2023-12-14T11:28:35;23.50;69.30
2363;DHT22;64265;51.664;7.626;2023-12-14T11:31:03;23.40;69.50
2363;DHT22;64265;51.664;7.626;2023-12-14T11:33:32;23.40;70.00
2363;DHT22;64265;51.664;7.626;2023-12-14T11:36:01;23.40;70.50
2363;DHT22;64265;51.664;7.626;2023-12-14T11:38:28;23.40;70.90
2363;DHT22;64265;51.664;7.626;2023-12-14T11:40:55;23.50;71.40
2363;DHT22;64265;51.664;7.626;2023-12-14T11:43:22;23.50;71.80
2363;DHT22;64265;51.664;7.626;2023-12-14T11:45:53;23.40;72.70
2363;DHT22;64265;51.664;7.626;2023-12-14T11:48:20;23.50;72.80
2363;DHT22;64265;51.664;7.626;2023-12-14T11:50:47;23.50;73.30
2363;DHT22;64265;51.664;7.626;2023-12-14T11:53:14;23.50;73.50
2363;DHT22;64265;51.664;7.626;2023-12-14T11:55:42;23.50;73.80
2363;DHT22;64265;51.664;7.626;2023-12-14T11:58:11;23.50;73.90
2363;DHT22;64265;51.664;7.626;2023-12-14T12:00:39;23.50;72.60
2363;DHT22;64265;51.664;7.626;2023-12-14T12:03:12;23.40;72.10
2363;DHT22;64265;51.664;7.626;2023-12-14T12:05:40;23.50;72.10
2363;DHT22;64265;51.664;7.626;2023-12-14T12:08:08;23.50;72.40
2363;DHT22;64265;51.664;7.626;2023-12-14T12:10:36;23.50;72.60
2363;DHT22;64265;51.664;7.626;2023-12-14T12:13:03;23.50;72.50
2363;DHT22;64265;51.664;7.626;2023-12-14T12:15:31;23.50;72.40
2363;DHT22;64265;51.664;7.626;2023-12-14T12:17:58;23.50;78.60
2363;DHT22;64265;51.664;7.626;2023-12-14T12:20:26;23.30;74.90
2363;DHT22;64265;51.664;7.626;2023-12-14T12:22:53;23.30;77.80
2363;DHT22;64265;51.664;7.626;2023-12-14T12:25:20;23.20;78.50
2363;DHT22;64265;51.664;7.626;2023-12-14T12:27:48;23.30;78.90
2363;DHT22;64265;51.664;7.626;2023-12-14T12:30:15;23.30;79.10
2363;DHT22;64265;51.664;7.626;2023-12-14T12:32:41;23.10;77.90
2363;DHT22;64265;51.664;7.626;2023-12-14T12:35:09;23.10;78.40
2363;DHT22;64265;51.664;7.626;2023-12-14T12:37:37;23.20;78.80
2363;DHT22;64265;51.664;7.626;2023-12-14T12:40:05;23.10;79.00
2363;DHT22;64265;51.664;7.626;2023-12-14T12:42:32;23.10;79.10
2363;DHT22;64265;51.664;7.626;2023-12-14T12:44:59;23.10;79.10
2363;DHT22;64265;51.664;7.626;2023-12-14T12:47:26;23.10;79.30
2363;DHT22;64265;51.664;7.626;2023-12-14T12:49:52;23.10;79.20
2363;DHT22;64265;51.664;7.626;2023-12-14T12:52:19;23.10;79.70
2363;DHT22;64265;51.664;7.626;2023-12-14T12:54:47;23.10;79.60
2363;DHT22;64265;51.664;7.626;2023-12-14T12:57:14;23.00;79.90
2363;DHT22;64265;51.664;7.626;2023-12-14T12:59:41;23.10;81.50
2363;DHT22;64265;51.664;7.626;2023-12-14T13:02:09;23.10;80.70
2363;DHT22;64265;51.664;7.626;2023-12-14T13:04:36;23.10;80.70
2363;DHT22;64265;51.664;7.626;2023-12-14T13:07:03;22.80;81.00
2363;DHT22;64265;51.664;7.626;2023-12-14T13:09:31;22.90;82.40
2363;DHT22;64265;51.664;7.626;2023-12-14T13:12:00;22.90;82.10
2363;DHT22;64265;51.664;7.626;2023-12-14T13:14:26;22.90;81.70
2363;DHT22;64265;51.664;7.626;2023-12-14T13:16:54;22.90;82.20
2363;DHT22;64265;51.664;7.626;2023-12-14T13:19:21;22.90;82.60
2363;DHT22;64265;51.664;7.626;2023-12-14T13:21:48;22.70;73.00
2363;DHT22;64265;51.664;7.626;2023-12-14T13:24:15;22.50;70.90
2363;DHT22;64265;51.664;7.626;2023-12-14T13:26:42;22.30;70.20
2363;DHT22;64265;51.664;7.626;2023-12-14T13:29:11;22.10;71.20
2363;DHT22;64265;51.664;7.626;2023-12-14T13:31:38;22.00;78.70
2363;DHT22;64265;51.664;7.626;2023-12-14T13:34:05;22.00;80.30
2363;DHT22;64265;51.664;7.626;2023-12-14T13:36:32;22.10;81.50
2363;DHT22;64265;51.664;7.626;2023-12-14T13:38:59;22.10;82.50
2363;DHT22;64265;51.664;7.626;2023-12-14T13:41:27;22.20;82.70
2363;DHT22;64265;51.664;7.626;2023-12-14T13:43:59;22.20;84.10
2363;DHT22;64265;51.664;7.626;2023-12-14T13:46:27;22.20;84.30
2363;DHT22;64265;51.664;7.626;2023-12-14T13:48:54;22.30;85.80
2363;DHT22;64265;51.664;7.626;2023-12-14T13:51:21;22.30;87.90
2363;DHT22;64265;51.664;7.626;2023-12-14T13:53:48;22.30;89.00
2363;DHT22;64265;51.664;7.626;2023-12-14T13:56:15;22.30;88.70
2363;DHT22;64265;51.664;7.626;2023-12-14T13:58:43;22.40;89.60
2363;DHT22;64265;51.664;7.626;2023-12-14T14:01:11;22.20;89.20
2363;DHT22;64265;51.664;7.626;2023-12-14T14:03:41;22.40;89.60
2363;DHT22;64265;51.664;7.626;2023-12-14T14:06:08;22.50;90.00
2363;DHT22;64265;51.664;7.626;2023-12-14T14:08:35;22.40;87.10
2363;DHT22;64265;51.664;7.626;2023-12-14T14:11:03;22.50;86.70
2363;DHT22;64265;51.664;7.626;2023-12-14T14:13:30;22.50;88.60
2363;DHT22;64265;51.664;7.626;2023-12-14T14:15:58;22.50;89.90
2363;DHT22;64265;51.664;7.626;2023-12-14T14:18:25;22.50;89.10
2363;DHT22;64265;51.664;7.626;2023-12-14T14:20:53;22.50;88.90
2363;DHT22;64265;51.664;7.626;2023-12-14T14:23:20;22.50;89.60
2363;DHT22;64265;51.664;7.626;2023-12-14T14:25:47;22.60;88.60
2363;DHT22;64265;51.664;7.626;2023-12-14T14:28:19;22.70;90.60
2363;DHT22;64265;51.664;7.626;2023-12-14T14:30:45;22.60;90.40
2363;DHT22;64265;51.664;7.626;2023-12-14T14:33:13;22.70;90.40
2363;DHT22;64265;51.664;7.626;2023-12-14T14:35:43;22.70;90.30
2363;DHT22;64265;51.664;7.626;2023-12-14T14:38:11;22.70;89.40
2363;DHT22;64265;51.664;7.626;2023-12-14T14:40:38;22.70;88.70
2363;DHT22;64265;51.664;7.626;2023-12-14T14:43:06;22.70;89.00
2363;DHT22;64265;51.664;7.626;2023-12-14T14:45:33;22.80;90.50
2363;DHT22;64265;51.664;7.626;2023-12-14T14:47:59;22.80;90.10
2363;DHT22;64265;51.664;7.626;2023-12-14T14:50:26;22.80;90.90
2363;DHT22;64265;51.664;7.626;2023-12-14T14:52:53;22.80;90.70
2363;DHT22;64265;51.664;7.626;2023-12-14T14:55:21;22.80;87.80
2363;DHT22;64265;51.664;7.626;2023-12-14T14:57:48;22.80;87.10
2363;DHT22;64265;51.664;7.626;2023-12-14T15:00:15;22.80;86.40
2363;DHT22;64265;51.664;7.626;2023-12-14T15:02:42;22.90;85.40
2363;DHT22;64265;51.664;7.626;2023-12-14T15:05:09;22.80;87.00
2363;DHT22;64265;51.664;7.626;2023-12-14T15:07:36;22.90;87.00
2363;DHT22;64265;51.664;7.626;2023-12-14T15:10:03;23.00;87.50
2363;DHT22;64265;51.664;7.626;2023-12-14T15:12:31;22.90;87.60
2363;DHT22;64265;51.664;7.626;2023-12-14T15:14:58;22.90;87.50
2363;DHT22;64265;51.664;7.626;2023-12-14T15:17:25;23.10;87.80
2363;DHT22;64265;51.664;7.626;2023-12-14T15:19:52;22.90;88.20
2363;DHT22;64265;51.664;7.626;2023-12-14T15:22:18;23.00;88.60
2363;DHT22;64265;51.664;7.626;2023-12-14T15:24:45;22.90;88.70
2363;DHT22;64265;51.664;7.626;2023-12-14T15:27:12;22.90;83.80
2363;DHT22;64265;51.664;7.626;2023-12-14T15:29:42;23.10;84.60
2363;DHT22;64265;51.664;7.626;2023-12-14T15:32:09;23.00;84.20
2363;DHT22;64265;51.664;7.626;2023-12-14T15:34:37;23.00;84.30
2363;DHT22;64265;51.664;7.626;2023-12-14T15:37:04;23.10;84.70
2363;DHT22;64265;51.664;7.626;2023-12-14T15:39:31;23.00;85.00
2363;DHT22;64265;51.664;7.626;2023-12-14T15:41:58;23.00;85.10
2363;DHT22;64265;51.664;7.626;2023-12-14T15:44:24;23.00;85.80
2363;DHT22;64265;51.664;7.626;2023-12-14T15:46:53;23.10;86.60